Time;durP1;ratioP1;P1;durP2;ratioP2;P2;SDS_P1;SDS_P2;PMS_P1;PMS_P2;Temp;Humidity;BMP_temperature;BMP_pressure;BME280_temperature;BME280_humidity;BME280_pressure;Samples;Min_cycle;Max_cycle;Signal;HPM_P1;HPM_P2
2023/08/15 00:00:35;;;;;;;8.95;4.43;;;;;;;22.92;62.91;101119.00;5003666;28;20029;-69
2023/08/15 00:03:00;;;;;;;8.73;4.22;;;;;;;22.88;62.92;101113.16;4992047;28;20470;-68
2023/08/15 00:05:26;;;;;;;8.10;4.07;;;;;;;22.88;62.56;101109.50;5009615;28;20030;-68
2023/08/15 00:07:51;;;;;;;9.68;4.22;;;;;;;22.82;62.83;101108.78;5011366;28;20030;-68
2023/08/15 00:10:16;;;;;;;6.97;3.80;;;;;;;22.87;62.46;101099.31;5005691;28;20105;-68
2023/08/15 00:12:41;;;;;;;7.32;3.85;;;;;;;22.80;62.84;101088.50;5008862;28;20037;-69
2023/08/15 00:15:07;;;;;;;9.40;4.03;;;;;;;22.75;62.50;101092.31;5005233;28;20037;-69
2023/08/15 00:17:33;;;;;;;8.45;4.10;;;;;;;22.70;62.77;101075.47;5010772;28;20041;-69
2023/08/15 00:19:58;;;;;;;8.70;4.22;;;;;;;22.75;62.45;101081.00;5011148;28;20022;-69
2023/08/15 00:22:23;;;;;;;11.38;4.35;;;;;;;22.70;62.75;101089.63;5011904;28;20029;-68
2023/08/15 00:24:49;;;;;;;9.20;4.70;;;;;;;22.70;62.86;101088.78;5014024;28;20045;-68
2023/08/15 00:27:14;;;;;;;8.75;3.95;;;;;;;22.67;62.99;101100.75;5008600;28;20034;-68
2023/08/15 00:29:39;;;;;;;9.65;4.20;;;;;;;22.65;63.14;101106.75;5013705;28;20172;-68
2023/08/15 00:32:04;;;;;;;6.35;4.10;;;;;;;22.63;62.94;101105.41;5007987;28;20473;-69
2023/08/15 00:34:30;;;;;;;8.75;4.70;;;;;;;22.61;62.80;101107.75;5011071;28;20041;-68
2023/08/15 00:36:55;;;;;;;7.43;3.90;;;;;;;22.60;62.62;101109.75;5013533;28;20108;-68
2023/08/15 00:39:20;;;;;;;10.73;4.10;;;;;;;22.60;62.66;101112.59;5015307;28;20025;-68
2023/08/15 00:41:46;;;;;;;10.60;4.40;;;;;;;22.52;62.69;101113.41;5012646;28;20042;-68
2023/08/15 00:44:11;;;;;;;11.63;4.43;;;;;;;22.49;62.79;101123.34;5014310;28;20036;-68
2023/08/15 00:46:37;;;;;;;9.25;4.00;;;;;;;22.49;62.78;101114.03;5013582;28;20026;-68
2023/08/15 00:49:04;;;;;;;7.00;3.90;;;;;;;22.46;62.94;101118.34;5010995;28;20089;-68
2023/08/15 00:51:30;;;;;;;11.15;4.57;;;;;;;22.38;62.80;101129.63;5013737;28;20671;-69
2023/08/15 00:53:55;;;;;;;6.07;3.85;;;;;;;22.28;62.92;101128.78;5013963;28;20052;-68
2023/08/15 00:56:21;;;;;;;8.38;4.22;;;;;;;22.25;62.88;101131.41;5011819;28;20030;-69
2023/08/15 00:58:47;;;;;;;12.18;4.30;;;;;;;22.26;62.70;101128.25;5015181;28;20033;-69
2023/08/15 01:01:15;;;;;;;7.60;3.90;;;;;;;22.24;62.53;101132.53;5015028;28;20025;-68
2023/08/15 01:03:41;;;;;;;11.38;4.30;;;;;;;22.20;62.12;101123.88;5013474;28;20042;-68
2023/08/15 01:06:06;;;;;;;10.80;4.00;;;;;;;22.14;62.00;101122.38;5007150;28;20462;-68
2023/08/15 01:08:32;;;;;;;9.00;3.72;;;;;;;22.19;61.72;101113.75;4994690;28;20069;-69
2023/08/15 01:10:59;;;;;;;8.27;3.70;;;;;;;22.20;60.70;101123.03;4995085;28;20072;-68
2023/08/15 01:13:59;;;;;;;10.50;3.67;;;;;;;22.24;60.82;101113.63;5011308;28;20092;-68
2023/08/15 01:16:28;;;;;;;7.13;3.70;;;;;;;22.08;60.07;101115.13;4990884;28;20061;-69
2023/08/15 01:19:15;;;;;;;9.43;3.17;;;;;;;22.19;60.39;101112.91;4994260;28;20549;-68
2023/08/15 01:21:46;;;;;;;8.23;3.60;;;;;;;22.05;59.82;101122.28;4995047;28;20038;-69
2023/08/15 01:24:12;;;;;;;11.05;3.60;;;;;;;22.06;59.57;101109.00;5013647;28;20058;-68
2023/08/15 01:26:37;;;;;;;7.53;3.20;;;;;;;22.14;59.36;101113.06;5013048;28;20109;-68
2023/08/15 01:29:03;;;;;;;9.63;3.95;;;;;;;22.16;59.49;101102.25;5011316;28;20188;-68
2023/08/15 01:31:35;;;;;;;9.43;3.47;;;;;;;22.11;59.06;101111.66;5010182;28;20037;-68
2023/08/15 01:34:00;;;;;;;8.05;3.63;;;;;;;22.10;58.88;101110.00;5011983;28;20409;-68
2023/08/15 01:36:31;;;;;;;8.68;3.25;;;;;;;22.07;58.85;101124.78;5012318;28;20042;-68
2023/08/15 01:39:01;;;;;;;8.45;3.92;;;;;;;21.99;59.00;101137.72;5011047;28;20033;-68
2023/08/15 01:41:31;;;;;;;10.57;3.20;;;;;;;22.05;59.48;101150.56;5012337;28;20034;-68
2023/08/15 01:43:57;;;;;;;9.43;3.28;;;;;;;21.91;58.84;101140.50;5007354;28;20173;-68
2023/08/15 01:46:22;;;;;;;10.75;3.10;;;;;;;21.95;58.86;101144.34;5009684;28;20109;-68
2023/08/15 01:48:48;;;;;;;8.57;3.05;;;;;;;21.86;58.99;101161.25;5012584;28;20493;-68
2023/08/15 01:51:13;;;;;;;8.07;3.25;;;;;;;21.90;59.06;101150.97;5014073;28;20384;-68
2023/08/15 01:53:38;;;;;;;9.10;3.40;;;;;;;21.93;59.11;101160.78;5011824;28;20100;-69
2023/08/15 01:56:04;;;;;;;8.63;3.35;;;;;;;21.85;59.16;101162.41;5009916;28;20026;-68
2023/08/15 01:58:30;;;;;;;9.05;3.38;;;;;;;21.87;59.51;101165.72;5013623;28;20037;-68
2023/08/15 02:00:55;;;;;;;8.40;3.28;;;;;;;21.85;59.54;101175.69;5013387;28;20053;-68
2023/08/15 02:03:20;;;;;;;6.63;3.13;;;;;;;21.80;59.78;101173.81;5009966;28;20707;-68
2023/08/15 02:05:46;;;;;;;8.88;2.80;;;;;;;21.87;59.57;101170.56;5011049;28;20057;-68
2023/08/15 02:08:11;;;;;;;6.43;2.92;;;;;;;21.78;59.62;101176.97;5012727;28;20132;-68
2023/08/15 02:10:36;;;;;;;8.98;2.92;;;;;;;21.83;59.60;101184.50;5012652;28;20034;-68
2023/08/15 02:13:02;;;;;;;10.27;2.80;;;;;;;21.78;59.64;101179.81;5013219;28;20065;-69
2023/08/15 02:15:27;;;;;;;7.25;2.90;;;;;;;21.81;59.75;101187.66;5011567;28;20029;-69
2023/08/15 02:17:53;;;;;;;10.80;3.33;;;;;;;21.79;59.57;101187.13;5010698;28;20392;-68
2023/08/15 02:20:18;;;;;;;9.48;3.25;;;;;;;21.73;59.60;101204.50;5010046;28;20048;-68
2023/08/15 02:22:43;;;;;;;10.35;3.20;;;;;;;21.72;59.67;101200.84;5013412;28;20512;-68
2023/08/15 02:25:09;;;;;;;8.00;3.05;;;;;;;21.65;59.81;101208.94;5011868;28;20033;-68
2023/08/15 02:27:34;;;;;;;9.38;3.58;;;;;;;21.75;59.56;101205.88;5009694;28;20096;-68
2023/08/15 02:29:59;;;;;;;10.00;3.40;;;;;;;21.74;59.61;101192.91;5013520;28;20037;-68
2023/08/15 02:32:25;;;;;;;10.00;2.97;;;;;;;21.73;59.80;101202.53;5013447;28;20032;-68
2023/08/15 02:34:51;;;;;;;9.82;3.40;;;;;;;21.62;59.90;101195.47;5011524;28;20100;-68
2023/08/15 02:37:17;;;;;;;7.28;3.10;;;;;;;21.62;60.16;101209.59;5006439;28;20042;-69
2023/08/15 02:39:42;;;;;;;7.78;3.03;;;;;;;21.70;60.16;101208.00;5010621;28;20034;-68
2023/08/15 02:42:07;;;;;;;10.40;3.50;;;;;;;21.60;60.24;101206.22;5011589;28;20125;-68
2023/08/15 02:44:33;;;;;;;11.07;3.53;;;;;;;21.59;60.31;101198.09;5011861;28;20389;-68
2023/08/15 02:46:58;;;;;;;8.95;3.33;;;;;;;21.58;60.66;101182.31;5009199;28;20034;-68
2023/08/15 02:49:24;;;;;;;8.23;3.60;;;;;;;21.53;60.73;101180.41;5010245;28;20478;-68
2023/08/15 02:51:49;;;;;;;8.40;2.67;;;;;;;21.59;60.76;101186.78;5012249;28;20101;-68
2023/08/15 02:54:14;;;;;;;10.73;3.45;;;;;;;21.50;61.12;101200.84;5011142;28;20044;-69
2023/08/15 02:56:40;;;;;;;7.97;3.30;;;;;;;21.54;60.85;101194.25;5011905;28;20025;-68
2023/08/15 02:59:05;;;;;;;7.25;3.30;;;;;;;21.52;61.03;101190.06;5008889;28;20036;-69
2023/08/15 03:01:32;;;;;;;7.40;3.50;;;;;;;21.45;61.38;101189.66;5011964;28;20065;-69
2023/08/15 03:03:57;;;;;;;9.88;3.28;;;;;;;21.51;61.14;101194.88;5003570;28;20029;-68
2023/08/15 03:06:22;;;;;;;10.80;3.28;;;;;;;21.53;61.26;101191.72;5012796;28;20030;-68
2023/08/15 03:08:48;;;;;;;9.20;3.35;;;;;;;21.52;61.33;101202.19;5010965;28;20026;-68
2023/08/15 03:11:13;;;;;;;10.35;3.42;;;;;;;21.50;61.53;101198.03;5011898;28;20092;-68
2023/08/15 03:13:38;;;;;;;10.23;2.97;;;;;;;21.48;61.79;101187.03;5010416;28;20065;-68
2023/08/15 03:16:04;;;;;;;10.07;3.15;;;;;;;21.46;61.55;101186.53;5012669;28;20034;-69
2023/08/15 03:18:29;;;;;;;8.88;3.75;;;;;;;21.37;61.95;101191.25;5010320;28;20088;-68
2023/08/15 03:20:59;;;;;;;9.73;3.03;;;;;;;21.48;61.70;101192.69;5007519;28;20036;-69
2023/08/15 03:23:24;;;;;;;10.88;3.53;;;;;;;21.43;61.77;101191.97;5010519;28;20040;-68
2023/08/15 03:26:03;;;;;;;9.20;3.58;;;;;;;21.39;61.95;101190.94;5008479;28;20037;-68
2023/08/15 03:28:28;;;;;;;10.48;3.67;;;;;;;21.36;62.14;101188.75;5011735;28;20509;-68
2023/08/15 03:30:54;;;;;;;7.00;3.42;;;;;;;21.33;62.38;101191.03;5007888;28;20064;-69
2023/08/15 03:33:20;;;;;;;7.75;3.65;;;;;;;21.37;62.66;101190.41;5011619;28;20481;-68
2023/08/15 03:35:49;;;;;;;9.98;4.20;;;;;;;21.32;62.63;101189.38;5012277;28;20025;-68
2023/08/15 03:38:20;;;;;;;8.15;3.75;;;;;;;21.28;62.74;101196.78;4991599;28;20081;-69
2023/08/15 03:40:47;;;;;;;7.95;3.60;;;;;;;21.30;62.75;101210.59;5001955;28;20033;-68
2023/08/15 03:43:13;;;;;;;7.72;3.25;;;;;;;21.22;63.06;101203.72;5005768;28;20400;-68
2023/08/15 03:45:40;;;;;;;10.88;3.55;;;;;;;21.12;63.35;101206.75;5011367;28;20432;-68
2023/08/15 03:48:06;;;;;;;10.55;3.55;;;;;;;21.20;63.21;101206.00;5010078;28;20032;-68
2023/08/15 03:50:36;;;;;;;8.18;3.60;;;;;;;21.20;63.15;101217.28;5010881;28;20037;-68
2023/08/15 03:53:01;;;;;;;9.85;3.53;;;;;;;21.19;63.06;101224.09;5004635;28;20378;-69
2023/08/15 03:55:28;;;;;;;9.25;3.55;;;;;;;21.20;62.98;101225.75;5011960;28;20041;-68
2023/08/15 03:57:54;;;;;;;7.20;3.33;;;;;;;21.23;63.10;101227.13;5014709;28;20469;-68
2023/08/15 04:00:19;;;;;;;12.75;4.03;;;;;;;21.12;63.21;101218.03;5014135;28;20116;-68
2023/08/15 04:02:45;;;;;;;10.82;3.92;;;;;;;21.16;62.98;101219.06;5013763;28;20029;-68
2023/08/15 04:05:11;;;;;;;9.32;3.47;;;;;;;21.18;62.99;101216.78;5015825;28;20084;-68
2023/08/15 04:07:37;;;;;;;7.30;3.30;;;;;;;21.13;63.25;101221.69;5012825;28;20680;-68
2023/08/15 04:10:02;;;;;;;10.05;3.53;;;;;;;21.14;63.13;101215.72;5011592;28;20473;-68
2023/08/15 04:12:28;;;;;;;12.20;3.80;;;;;;;21.05;63.27;101209.97;5014253;28;20493;-68
2023/08/15 04:14:53;;;;;;;10.85;4.28;;;;;;;20.98;63.51;101220.03;5013330;28;20127;-68
2023/08/15 04:17:18;;;;;;;9.50;4.22;;;;;;;21.03;63.63;101201.00;5015873;28;20113;-69
2023/08/15 04:19:44;;;;;;;10.35;4.28;;;;;;;20.93;63.72;101194.75;5014918;28;20026;-68
2023/08/15 04:22:10;;;;;;;11.52;4.22;;;;;;;20.97;63.72;101201.44;5014797;28;20021;-68
2023/08/15 04:24:35;;;;;;;8.63;2.72;;;;;;;21.01;63.68;101197.66;5013865;28;20037;-68
2023/08/15 04:27:01;;;;;;;8.13;4.10;;;;;;;20.93;63.80;101201.22;5011831;28;20088;-68
2023/08/15 04:29:26;;;;;;;13.25;4.68;;;;;;;20.81;64.01;101210.22;4997957;28;20457;-69
2023/08/15 04:31:51;;;;;;;6.53;3.47;;;;;;;20.93;63.83;101220.13;5009913;28;20124;-69
2023/08/15 04:34:16;;;;;;;9.88;3.72;;;;;;;20.87;63.97;101213.78;5013376;28;20038;-68
2023/08/15 04:36:46;;;;;;;9.82;4.78;;;;;;;20.82;64.21;101222.31;5013565;28;20049;-69
2023/08/15 04:39:11;;;;;;;9.13;3.78;;;;;;;20.91;64.02;101225.28;5014122;28;20034;-69
2023/08/15 04:41:36;;;;;;;9.60;4.30;;;;;;;20.78;64.30;101227.75;5013564;28;20029;-68
2023/08/15 04:44:02;;;;;;;10.30;4.20;;;;;;;20.75;64.59;101231.22;5013444;28;20113;-68
2023/08/15 04:46:27;;;;;;;11.82;4.28;;;;;;;20.76;64.39;101227.25;4997827;28;20034;-69
2023/08/15 04:48:52;;;;;;;9.10;3.63;;;;;;;20.84;64.22;101237.81;5014353;28;20029;-68
2023/08/15 04:51:18;;;;;;;7.97;3.63;;;;;;;20.87;64.26;101235.50;5013786;28;20057;-68
2023/08/15 04:53:43;;;;;;;8.88;3.45;;;;;;;20.88;64.13;101240.00;5013846;28;20029;-68
2023/08/15 04:56:11;;;;;;;9.68;3.83;;;;;;;20.85;64.41;101249.91;5013328;28;20376;-68
2023/08/15 04:58:37;;;;;;;10.23;4.63;;;;;;;20.82;64.43;101245.72;5009744;28;20112;-68
2023/08/15 05:01:02;;;;;;;9.35;3.78;;;;;;;20.89;64.24;101255.78;5008449;28;20032;-68
2023/08/15 05:03:28;;;;;;;7.93;3.67;;;;;;;20.73;64.88;101264.53;5011944;28;20109;-68
2023/08/15 05:05:53;;;;;;;9.65;4.65;;;;;;;20.76;64.92;101269.56;5014896;28;20029;-69
2023/08/15 05:08:18;;;;;;;9.98;4.40;;;;;;;20.81;64.68;101280.75;5011891;28;20033;-68
2023/08/15 05:10:43;;;;;;;9.68;3.72;;;;;;;20.83;64.59;101281.28;5009745;28;20058;-69
2023/08/15 05:13:09;;;;;;;8.75;4.10;;;;;;;20.81;64.72;101277.91;5013737;28;20026;-69
2023/08/15 05:15:34;;;;;;;9.30;4.18;;;;;;;20.78;64.96;101289.81;5013357;28;20725;-68
2023/08/15 05:18:00;;;;;;;13.63;4.07;;;;;;;20.82;64.76;101296.50;5005020;28;20429;-68
2023/08/15 05:20:25;;;;;;;12.50;4.13;;;;;;;20.70;65.18;101296.19;4998840;28;20093;-69
2023/08/15 05:22:50;;;;;;;11.48;3.72;;;;;;;20.72;65.15;101302.38;5000157;28;20128;-68
2023/08/15 05:25:16;;;;;;;9.20;3.90;;;;;;;20.63;65.48;101303.38;5012874;28;20026;-69
2023/08/15 05:27:41;;;;;;;13.95;4.57;;;;;;;20.65;65.46;101307.56;5011202;28;20618;-68
2023/08/15 05:30:07;;;;;;;10.30;4.38;;;;;;;20.56;65.70;101312.25;5008931;28;20489;-68
2023/08/15 05:32:33;;;;;;;9.45;3.80;;;;;;;20.62;65.47;101308.19;5011973;28;20114;-70
2023/08/15 05:34:59;;;;;;;9.63;4.03;;;;;;;20.70;65.50;101310.28;5002669;28;20109;-71
2023/08/15 05:37:24;;;;;;;11.40;4.07;;;;;;;20.62;65.64;101313.81;5009033;28;20393;-69
2023/08/15 05:39:49;;;;;;;10.07;4.07;;;;;;;20.65;65.49;101299.09;5009345;28;20451;-70
2023/08/15 05:42:17;;;;;;;11.10;4.50;;;;;;;20.64;65.90;101296.59;5011622;28;20029;-70
2023/08/15 05:44:45;;;;;;;10.88;4.18;;;;;;;20.69;65.59;101296.50;5010691;28;20034;-71
2023/08/15 05:47:10;;;;;;;5.13;3.33;;;;;;;20.77;65.56;101293.78;5013398;28;20084;-71
2023/08/15 05:49:36;;;;;;;9.35;4.25;;;;;;;20.70;65.64;101307.47;5007900;28;20486;-70
2023/08/15 05:52:02;;;;;;;9.27;4.35;;;;;;;20.71;65.67;101311.97;4995753;28;20065;-69
2023/08/15 05:54:28;;;;;;;10.38;4.30;;;;;;;20.73;66.00;101320.13;5013517;28;20061;-72
2023/08/15 05:56:54;;;;;;;10.82;4.53;;;;;;;20.68;65.80;101321.06;5013315;28;20050;-70
2023/08/15 05:59:19;;;;;;;9.68;4.03;;;;;;;20.74;65.75;101328.25;5001613;28;20119;-69
2023/08/15 06:01:45;;;;;;;11.35;4.00;;;;;;;20.76;66.76;101325.16;5003226;28;20029;-68
2023/08/15 06:04:11;;;;;;;13.45;5.13;;;;;;;20.64;66.18;101322.81;5003419;28;20037;-68
2023/08/15 06:06:36;;;;;;;12.73;4.95;;;;;;;20.72;66.11;101329.75;5008391;28;20547;-69
2023/08/15 06:09:02;;;;;;;9.68;4.68;;;;;;;20.74;66.21;101328.25;5011472;28;20109;-67
2023/08/15 06:11:27;;;;;;;13.45;4.93;;;;;;;20.71;66.46;101330.88;5008505;28;20120;-65
2023/08/15 06:13:53;;;;;;;9.68;4.78;;;;;;;20.68;66.31;101332.34;4997607;28;20088;-68
2023/08/15 06:16:18;;;;;;;9.65;4.82;;;;;;;20.70;66.36;101344.13;5011943;28;20057;-65
2023/08/15 06:18:43;;;;;;;11.90;3.90;;;;;;;20.84;66.41;101356.31;5003902;28;20127;-68
2023/08/15 06:21:09;;;;;;;14.00;5.38;;;;;;;20.82;66.20;101361.41;5000178;28;20038;-68
2023/08/15 06:23:34;;;;;;;8.65;4.20;;;;;;;21.02;65.95;101353.72;5008228;28;20033;-68
2023/08/15 06:26:00;;;;;;;7.57;3.90;;;;;;;21.12;65.59;101353.53;5006565;28;20026;-66
2023/08/15 06:28:25;;;;;;;11.25;4.22;;;;;;;21.22;65.47;101358.13;5008452;28;20042;-66
2023/08/15 06:30:51;;;;;;;11.35;4.72;;;;;;;21.27;64.76;101356.03;5003823;28;20021;-66
2023/08/15 06:33:16;;;;;;;14.27;5.72;;;;;;;21.20;64.95;101352.78;5004765;28;20084;-65
2023/08/15 06:35:41;;;;;;;12.93;5.22;;;;;;;21.28;64.83;101365.34;5005340;28;20030;-65
2023/08/15 06:38:06;;;;;;;9.00;3.33;;;;;;;21.40;64.63;101356.38;5011468;28;20033;-66
2023/08/15 06:40:32;;;;;;;9.05;4.13;;;;;;;21.46;64.75;101355.13;5009857;28;20038;-67
2023/08/15 06:42:57;;;;;;;9.25;3.03;;;;;;;21.56;64.44;101360.56;5010915;28;20080;-68
2023/08/15 06:45:23;;;;;;;9.23;3.42;;;;;;;21.65;64.49;101361.47;5010642;28;20049;-67
2023/08/15 06:47:49;;;;;;;8.35;3.55;;;;;;;21.71;64.13;101359.41;5007078;28;20496;-67
2023/08/15 06:50:15;;;;;;;6.88;3.22;;;;;;;21.78;63.62;101362.63;5009357;28;20034;-67
2023/08/15 06:52:40;;;;;;;7.22;3.45;;;;;;;21.82;63.79;101369.31;5012000;28;20029;-66
2023/08/15 06:55:06;;;;;;;10.38;3.92;;;;;;;21.91;63.57;101377.88;5009737;28;20034;-66
2023/08/15 06:57:32;;;;;;;9.50;3.97;;;;;;;21.91;63.49;101372.22;5010901;28;20451;-66
2023/08/15 06:59:57;;;;;;;8.27;3.70;;;;;;;21.94;63.04;101365.94;5012005;28;20114;-67
2023/08/15 07:02:23;;;;;;;5.32;3.47;;;;;;;21.99;62.99;101368.66;5006653;28;20080;-66
2023/08/15 07:04:48;;;;;;;7.55;3.60;;;;;;;22.06;63.03;101361.41;5003244;28;20071;-67
2023/08/15 07:07:14;;;;;;;9.32;3.15;;;;;;;22.12;62.68;101373.44;4993704;28;20030;-66
2023/08/15 07:09:40;;;;;;;6.97;2.97;;;;;;;22.17;62.55;101376.19;5008608;28;20037;-68
2023/08/15 07:12:05;;;;;;;8.75;4.28;;;;;;;22.18;62.38;101372.19;5010982;28;20033;-67
2023/08/15 07:14:32;;;;;;;8.77;4.20;;;;;;;22.23;62.48;101379.72;5008092;28;20041;-66
2023/08/15 07:16:57;;;;;;;7.22;3.47;;;;;;;22.21;62.26;101374.38;4993978;28;20026;-66
2023/08/15 07:19:23;;;;;;;6.53;3.00;;;;;;;22.26;62.30;101367.78;5009992;28;20037;-67
2023/08/15 07:21:48;;;;;;;8.55;3.00;;;;;;;22.33;61.87;101371.00;5011712;28;20112;-67
2023/08/15 07:24:14;;;;;;;10.30;3.63;;;;;;;22.35;62.22;101385.63;5011313;28;20084;-67
2023/08/15 07:26:39;;;;;;;9.50;3.47;;;;;;;22.40;61.96;101384.66;5009263;28;20033;-67
2023/08/15 07:29:05;;;;;;;8.40;3.30;;;;;;;22.38;62.04;101392.66;5011480;28;20053;-67
2023/08/15 07:31:30;;;;;;;12.10;3.42;;;;;;;22.44;62.02;101382.88;5004684;28;20065;-67
2023/08/15 07:33:55;;;;;;;6.45;2.53;;;;;;;22.41;61.74;101387.19;4992020;28;20034;-67
2023/08/15 07:36:21;;;;;;;8.65;2.80;;;;;;;22.44;61.63;101392.22;4998721;28;20109;-67
2023/08/15 07:38:46;;;;;;;8.75;3.20;;;;;;;22.44;62.10;101392.22;5007097;28;20099;-66
2023/08/15 07:41:11;;;;;;;12.07;3.50;;;;;;;22.44;61.67;101400.72;5007777;28;20030;-66
2023/08/15 07:43:37;;;;;;;6.95;2.92;;;;;;;22.46;61.94;101401.22;5010795;28;20377;-67
2023/08/15 07:46:02;;;;;;;7.60;3.00;;;;;;;22.47;61.40;101405.69;5008670;28;20026;-69
2023/08/15 07:48:29;;;;;;;11.23;3.55;;;;;;;22.44;61.51;101397.88;5000359;28;20584;-66
2023/08/15 07:50:55;;;;;;;8.65;2.67;;;;;;;22.44;61.66;101399.84;5006410;28;20033;-68
2023/08/15 07:53:21;;;;;;;7.30;2.70;;;;;;;22.36;61.90;101404.31;5011613;28;20044;-67
2023/08/15 07:55:46;;;;;;;11.13;2.97;;;;;;;22.40;62.02;101407.31;5010190;28;20048;-68
2023/08/15 07:58:12;;;;;;;7.85;2.70;;;;;;;22.44;61.75;101409.19;5004749;28;20477;-66
2023/08/15 08:00:37;;;;;;;11.07;3.08;;;;;;;22.48;62.06;101403.75;5007550;28;20045;-67
2023/08/15 08:03:03;;;;;;;8.10;3.13;;;;;;;22.52;61.73;101410.44;5010683;28;20378;-67
2023/08/15 08:05:28;;;;;;;10.32;3.15;;;;;;;22.56;62.19;101411.44;5005797;28;20034;-67
2023/08/15 08:07:54;;;;;;;7.05;2.80;;;;;;;22.60;61.65;101415.31;4992132;28;20026;-67
2023/08/15 08:10:20;;;;;;;7.72;2.70;;;;;;;22.64;61.63;101413.50;5002208;28;20431;-67
2023/08/15 08:12:48;;;;;;;9.18;3.00;;;;;;;22.71;61.70;101405.38;5003583;28;20037;-67
2023/08/15 08:15:14;;;;;;;6.13;2.85;;;;;;;22.77;61.24;101412.59;5008078;28;20436;-67
2023/08/15 08:17:39;;;;;;;7.10;2.50;;;;;;;22.84;61.27;101411.31;5009794;28;20030;-67
2023/08/15 08:20:13;;;;;;;8.13;3.10;;;;;;;22.89;61.03;101412.00;5010440;28;20014;-67
2023/08/15 08:22:39;;;;;;;5.57;2.45;;;;;;;22.91;60.50;101406.91;5004338;28;20482;-66
2023/08/15 08:25:11;;;;;;;9.77;2.92;;;;;;;22.99;61.17;101413.75;5009064;28;20137;-66
2023/08/15 08:27:36;;;;;;;9.15;3.33;;;;;;;23.02;61.12;101418.78;5004255;28;20466;-66
2023/08/15 08:30:02;;;;;;;8.50;2.97;;;;;;;23.02;60.34;101413.94;5003417;28;20077;-67
2023/08/15 08:32:27;;;;;;;8.43;2.88;;;;;;;22.97;60.95;101416.94;5001746;28;20109;-67
2023/08/15 08:34:53;;;;;;;8.02;2.88;;;;;;;22.96;60.84;101417.25;4994247;28;20045;-67
2023/08/15 08:37:18;;;;;;;13.20;3.42;;;;;;;22.92;60.51;101419.06;4992624;28;20948;-67
2023/08/15 08:39:43;;;;;;;7.15;2.80;;;;;;;22.95;61.03;101412.72;5009711;28;20081;-67
2023/08/15 08:42:10;;;;;;;6.93;2.75;;;;;;;22.92;60.89;101414.25;5003615;28;20056;-67
2023/08/15 08:44:36;;;;;;;11.40;3.10;;;;;;;22.90;60.81;101419.34;5007884;28;20080;-66
2023/08/15 08:47:01;;;;;;;10.02;2.72;;;;;;;22.90;61.16;101418.50;5009851;28;20038;-66
2023/08/15 08:49:28;;;;;;;7.55;2.90;;;;;;;22.90;61.25;101412.84;5010712;28;20038;-65
2023/08/15 08:51:56;;;;;;;9.65;2.92;;;;;;;22.91;61.09;101418.22;5013400;28;20080;-66
2023/08/15 08:54:21;;;;;;;7.22;2.63;;;;;;;22.92;60.62;101411.41;5008216;28;20038;-66
2023/08/15 08:56:49;;;;;;;6.70;2.53;;;;;;;22.96;61.07;101420.09;5006119;28;20036;-66
2023/08/15 08:59:17;;;;;;;13.27;3.65;;;;;;;23.01;60.89;101431.28;5003738;28;20681;-67
2023/08/15 09:01:44;;;;;;;8.50;2.92;;;;;;;23.03;61.24;101435.47;5004664;28;20026;-66
2023/08/15 09:04:10;;;;;;;9.68;3.03;;;;;;;23.15;61.56;101428.38;5001684;28;20038;-66
2023/08/15 09:06:35;;;;;;;11.80;3.40;;;;;;;23.23;61.69;101431.25;5007207;28;20033;-67
2023/08/15 09:09:00;;;;;;;7.25;3.28;;;;;;;23.30;61.35;101430.75;5004497;28;20030;-65
2023/08/15 09:11:36;;;;;;;8.13;2.88;;;;;;;23.34;60.87;101430.94;5011251;28;20030;-65
2023/08/15 09:14:03;;;;;;;9.02;2.88;;;;;;;23.31;60.64;101432.44;5009405;28;20041;-65
2023/08/15 09:16:29;;;;;;;5.95;2.97;;;;;;;23.37;60.93;101436.81;4996331;28;20057;-64
2023/08/15 09:18:54;;;;;;;7.40;2.60;;;;;;;23.44;60.55;101433.50;4998432;28;20120;-64
2023/08/15 09:21:21;;;;;;;10.00;3.15;;;;;;;23.51;60.14;101442.38;5007137;28;20029;-66
2023/08/15 09:23:46;;;;;;;9.05;3.00;;;;;;;23.49;60.63;101433.34;5005674;28;20029;-66
2023/08/15 09:26:14;;;;;;;10.00;2.75;;;;;;;23.48;60.55;101438.19;5010027;28;20129;-66
2023/08/15 09:28:41;;;;;;;10.75;2.97;;;;;;;23.46;60.25;101451.00;5009599;28;20046;-66
2023/08/15 09:31:08;;;;;;;10.35;3.00;;;;;;;23.50;59.65;101446.34;5006453;28;20036;-66
2023/08/15 09:33:34;;;;;;;7.20;2.85;;;;;;;23.55;59.74;101449.06;5008491;28;20117;-67
2023/08/15 09:36:03;;;;;;;8.65;3.08;;;;;;;23.69;59.27;101446.97;5001386;28;20026;-67
2023/08/15 09:38:29;;;;;;;9.30;2.90;;;;;;;23.81;59.02;101451.19;5008109;28;20049;-68
2023/08/15 09:40:55;;;;;;;8.75;3.10;;;;;;;23.89;59.29;101450.38;5008709;28;20025;-67
2023/08/15 09:43:20;;;;;;;10.10;2.80;;;;;;;23.83;58.76;101440.38;5009898;28;20030;-67
2023/08/15 09:45:46;;;;;;;9.95;3.00;;;;;;;23.85;58.33;101453.03;5010090;28;20129;-66
2023/08/15 09:48:12;;;;;;;12.20;3.10;;;;;;;23.87;58.78;101455.56;5006445;28;20041;-67
2023/08/15 09:50:38;;;;;;;12.73;3.78;;;;;;;23.88;58.74;101449.53;4999835;28;20030;-67
2023/08/15 09:53:04;;;;;;;7.72;3.00;;;;;;;23.96;58.66;101453.56;5005284;28;20038;-67
2023/08/15 09:55:31;;;;;;;9.68;3.10;;;;;;;24.05;58.74;101457.28;5003242;28;20030;-66
2023/08/15 09:57:57;;;;;;;8.45;2.95;;;;;;;24.05;58.43;101468.63;5003738;28;20030;-66
2023/08/15 10:00:22;;;;;;;10.68;2.92;;;;;;;24.11;57.75;101458.78;5008901;28;20084;-66
2023/08/15 10:02:55;;;;;;;6.53;2.50;;;;;;;24.13;57.51;101464.97;5007560;28;20037;-65
2023/08/15 10:05:21;;;;;;;8.55;2.60;;;;;;;24.16;57.28;101467.13;5007579;28;20038;-66
2023/08/15 10:07:48;;;;;;;10.68;2.50;;;;;;;24.20;56.67;101478.66;5008856;28;20030;-65
2023/08/15 10:10:14;;;;;;;9.45;2.55;;;;;;;24.17;57.26;101491.50;5009215;28;20128;-65
2023/08/15 10:12:41;;;;;;;9.43;2.35;;;;;;;24.15;56.72;101487.31;5005331;28;20026;-65
2023/08/15 10:15:10;;;;;;;11.75;2.95;;;;;;;24.14;56.83;101485.66;5006912;28;20033;-65
2023/08/15 10:17:37;;;;;;;7.30;2.67;;;;;;;24.20;57.41;101481.47;5009203;28;20152;-67
2023/08/15 10:20:10;;;;;;;6.97;2.40;;;;;;;24.24;56.87;101491.00;5008240;28;20036;-66
2023/08/15 10:22:37;;;;;;;11.02;2.50;;;;;;;24.30;56.55;101488.84;4998964;28;20036;-66
2023/08/15 10:25:22;;;;;;;10.52;2.33;;;;;;;24.35;57.23;101488.69;5006898;28;20053;-65
2023/08/15 10:27:49;;;;;;;7.03;2.60;;;;;;;24.40;56.51;101482.88;5005510;28;20030;-65
2023/08/15 10:30:29;;;;;;;7.32;2.33;;;;;;;24.44;56.42;101490.44;5002394;28;20022;-66
2023/08/15 10:32:55;;;;;;;8.18;2.70;;;;;;;24.52;56.10;101487.91;5007298;28;20061;-65
2023/08/15 10:35:25;;;;;;;7.30;2.35;;;;;;;24.46;55.78;101488.06;5009054;28;21704;-63
2023/08/15 10:37:50;;;;;;;6.88;2.00;;;;;;;24.43;56.40;101497.25;5012387;28;20026;-62
2023/08/15 10:40:15;;;;;;;7.35;2.50;;;;;;;24.43;57.72;101500.09;5010908;28;20034;-65
2023/08/15 10:43:02;;;;;;;10.00;2.80;;;;;;;24.53;57.55;101500.94;5008179;28;20351;-65
2023/08/15 10:45:35;;;;;;;4.82;2.47;;;;;;;24.59;56.31;101506.09;4999912;28;20041;-65
2023/08/15 10:48:00;;;;;;;7.43;2.40;;;;;;;24.72;55.70;101498.63;5000322;28;20042;-65
2023/08/15 10:50:26;;;;;;;9.25;2.85;;;;;;;24.83;55.50;101499.09;5007897;28;20034;-66
2023/08/15 10:52:58;;;;;;;7.97;2.47;;;;;;;24.85;55.53;101491.94;5010450;28;20081;-66
2023/08/15 10:55:35;;;;;;;10.50;2.53;;;;;;;24.87;54.40;101497.28;5007421;28;20030;-66
2023/08/15 10:58:04;;;;;;;6.93;2.33;;;;;;;24.79;54.32;101500.94;5005229;28;20021;-66
2023/08/15 11:00:30;;;;;;;7.85;2.13;;;;;;;24.73;54.29;101489.75;5007495;28;20026;-65
2023/08/15 11:02:57;;;;;;;6.95;2.20;;;;;;;24.76;54.66;101498.78;5007277;28;20038;-65
2023/08/15 11:05:44;;;;;;;5.80;2.22;;;;;;;24.86;55.41;101485.06;5002601;28;20088;-65
2023/08/15 11:08:10;;;;;;;7.15;2.33;;;;;;;24.89;54.13;101492.94;5008339;28;20095;-66
2023/08/15 11:10:35;;;;;;;5.07;2.17;;;;;;;25.00;54.72;101490.59;5007812;28;20036;-64
2023/08/15 11:13:01;;;;;;;6.65;2.20;;;;;;;25.02;53.76;101502.44;5009918;28;20113;-64
2023/08/15 11:15:26;;;;;;;7.22;2.38;;;;;;;24.99;53.41;101486.06;5007277;28;20056;-63
2023/08/15 11:17:54;;;;;;;9.57;2.60;;;;;;;24.98;53.18;101490.91;5008444;28;20404;-66